createdAt,value
2022-09-05T00:02:48.736Z,99.90
2022-09-05T00:05:22.828Z,99.90
2022-09-05T00:07:59.525Z,99.90
2022-09-05T00:10:37.340Z,99.90
2022-09-05T00:13:07.998Z,99.90
2022-09-05T00:15:40.384Z,99.90
2022-09-05T00:24:17.673Z,99.90
2022-09-05T00:24:28.564Z,99.90
2022-09-05T00:24:32.757Z,99.90
2022-09-05T00:26:58.670Z,99.90
2022-09-05T00:31:05.621Z,99.90
2022-09-05T00:32:40.355Z,99.90
2022-09-05T00:35:14.750Z,99.90
2022-09-05T00:37:45.486Z,99.90
2022-09-05T00:40:27.005Z,99.90
2022-09-05T00:42:56.955Z,99.90
2022-09-05T00:45:28.122Z,99.90
2022-09-05T00:48:00.708Z,99.90
2022-09-05T00:50:31.264Z,99.90
2022-09-05T00:53:07.563Z,99.90
2022-09-05T00:55:40.134Z,99.90
2022-09-05T00:58:22.762Z,99.90
2022-09-05T01:00:53.377Z,99.90
2022-09-05T01:03:28.044Z,99.90
2022-09-05T01:06:05.138Z,99.90
2022-09-05T01:08:47.535Z,99.90
2022-09-05T01:11:20.820Z,99.90
2022-09-05T01:13:51.373Z,99.90
2022-09-05T01:16:23.048Z,99.90
2022-09-05T01:18:54.929Z,99.90
2022-09-05T01:21:40.620Z,99.90
2022-09-05T01:24:27.690Z,99.90
2022-09-05T01:27:12.187Z,99.90
2022-09-05T01:29:44.986Z,99.90
2022-09-05T01:32:21.952Z,99.90
2022-09-05T01:34:57.003Z,99.90
2022-09-05T01:37:33.686Z,99.90
2022-09-05T01:40:14.946Z,99.90
2022-09-05T01:42:48.886Z,99.90
2022-09-05T01:45:20.119Z,99.90
2022-09-05T01:47:50.975Z,99.90
2022-09-05T01:50:28.631Z,99.90
2022-09-05T01:53:03.114Z,99.90
2022-09-05T01:56:04.188Z,99.90
2022-09-05T01:58:32.811Z,99.90
2022-09-05T02:01:26.999Z,99.90
2022-09-05T02:04:00.535Z,99.90
2022-09-05T02:06:36.440Z,99.90
2022-09-05T02:09:15.336Z,99.90
2022-09-05T02:11:46.408Z,99.90
2022-09-05T02:14:34.175Z,99.90
2022-09-05T02:17:31.972Z,99.90
2022-09-05T02:20:08.608Z,99.90
2022-09-05T02:22:42.730Z,99.90
2022-09-05T02:25:24.842Z,99.90
2022-09-05T02:28:04.782Z,99.90
2022-09-05T02:30:35.992Z,99.90
2022-09-05T02:33:11.810Z,99.90
2022-09-05T02:35:43.912Z,99.90
2022-09-05T02:40:53.550Z,99.90
2022-09-05T02:45:06.538Z,99.90
2022-09-05T02:45:10.847Z,99.90
2022-09-05T02:46:51.479Z,99.90
2022-09-05T02:50:33.452Z,99.90
2022-09-05T02:57:29.837Z,99.90
2022-09-05T02:57:34.041Z,99.90
2022-09-05T02:58:09.044Z,99.90
2022-09-05T03:00:39.517Z,99.90
2022-09-05T03:03:18.799Z,99.90
2022-09-05T03:05:53.030Z,99.90
2022-09-05T03:08:24.956Z,99.90
2022-09-05T03:11:04.721Z,99.90
2022-09-05T03:13:50.164Z,99.90
2022-09-05T03:16:42.112Z,99.90
2022-09-05T03:19:46.734Z,99.90
2022-09-05T03:22:36.915Z,99.90
2022-09-05T03:25:17.470Z,99.90
2022-09-05T03:28:04.055Z,99.90
2022-09-05T03:30:40.838Z,99.90
2022-09-05T03:33:22.923Z,99.90
2022-09-05T03:36:20.828Z,99.90
2022-09-05T03:39:15.529Z,99.90
2022-09-05T03:41:58.704Z,99.90
2022-09-05T03:44:34.700Z,99.90
2022-09-05T03:47:12.151Z,99.90
2022-09-05T03:55:41.156Z,99.90
2022-09-05T03:57:07.548Z,99.90
2022-09-05T03:57:15.050Z,99.90
2022-09-05T03:58:58.933Z,99.90
2022-09-05T04:03:47.160Z,99.90
2022-09-05T04:08:16.469Z,99.90
2022-09-05T04:08:28.731Z,99.90
2022-09-05T04:10:08.985Z,99.90
2022-09-05T04:12:39.923Z,99.90
2022-09-05T04:15:14.473Z,99.90
2022-09-05T04:17:44.204Z,99.90
2022-09-05T04:20:14.898Z,99.90
2022-09-05T04:23:00.625Z,99.90
2022-09-05T04:25:35.406Z,99.90
2022-09-05T04:28:11.097Z,99.90
2022-09-05T04:30:44.580Z,99.90
2022-09-05T04:33:19.098Z,99.90
2022-09-05T04:35:53.995Z,99.90
2022-09-05T04:38:36.992Z,99.90
2022-09-05T04:41:08.662Z,99.90
2022-09-05T04:43:39.048Z,99.90
2022-09-05T04:46:12.387Z,99.90
2022-09-05T04:48:44.900Z,99.90
2022-09-05T04:51:27.678Z,99.90
2022-09-05T04:54:10.507Z,99.90
2022-09-05T04:56:42.758Z,99.90
2022-09-05T05:01:00.380Z,99.90
2022-09-05T05:06:13.729Z,99.90
2022-09-05T05:06:17.931Z,99.90
2022-09-05T05:07:52.299Z,99.90
2022-09-05T05:12:32.796Z,99.90
2022-09-05T05:18:01.445Z,99.90
2022-09-05T05:18:06.880Z,99.90
2022-09-05T05:19:05.116Z,99.90
2022-09-05T05:21:35.093Z,99.90
2022-09-05T05:24:09.424Z,99.90
2022-09-05T05:26:42.123Z,99.90
2022-09-05T05:29:11.392Z,99.90
2022-09-05T05:31:41.188Z,99.90
2022-09-05T05:34:24.599Z,99.90
2022-09-05T05:37:00.261Z,99.90
2022-09-05T05:39:29.583Z,99.90
2022-09-05T05:41:58.160Z,99.90
2022-09-05T05:44:27.664Z,99.90
2022-09-05T05:46:59.246Z,99.90
2022-09-05T05:49:34.107Z,99.90
2022-09-05T05:52:13.726Z,99.90
2022-09-05T05:54:45.546Z,99.90
2022-09-05T05:57:23.786Z,99.90
2022-09-05T06:00:05.026Z,99.90
2022-09-05T06:03:24.953Z,99.90
2022-09-05T06:05:48.887Z,99.90
2022-09-05T06:13:02.272Z,99.90
2022-09-05T06:15:02.809Z,99.90
2022-09-05T06:15:10.282Z,99.90
2022-09-05T06:17:52.402Z,99.90
2022-09-05T06:22:09.629Z,99.90
2022-09-05T06:23:39.398Z,99.90
2022-09-05T06:26:22.034Z,99.90
2022-09-05T06:29:01.215Z,99.90
2022-09-05T06:31:38.850Z,99.90
2022-09-05T06:34:33.542Z,99.90
2022-09-05T06:37:07.946Z,99.90
2022-09-05T06:39:46.547Z,99.90
2022-09-05T06:42:42.179Z,99.90
2022-09-05T06:45:28.358Z,99.90
2022-09-05T06:47:59.621Z,99.90
2022-09-05T06:50:41.841Z,99.90
2022-09-05T06:53:33.903Z,99.90
2022-09-05T06:56:07.102Z,99.90
2022-09-05T06:58:50.770Z,99.90
2022-09-05T07:01:57.930Z,99.90
2022-09-05T07:04:52.820Z,99.90
2022-09-05T07:07:23.624Z,99.90
2022-09-05T07:09:57.426Z,99.90
2022-09-05T07:12:30.308Z,99.90
2022-09-05T07:15:09.316Z,99.90
2022-09-05T07:18:08.576Z,99.90
2022-09-05T07:21:02.284Z,99.90
2022-09-05T07:24:02.309Z,99.90
2022-09-05T07:26:51.998Z,99.90
2022-09-05T07:29:09.923Z,99.90
2022-09-05T07:31:39.676Z,99.90
2022-09-05T07:34:20.580Z,99.90
2022-09-05T07:36:50.827Z,99.90
2022-09-05T07:39:41.621Z,99.90
2022-09-05T07:42:15.023Z,99.90
2022-09-05T07:44:47.310Z,99.90
2022-09-05T07:47:20.535Z,99.90
2022-09-05T07:50:12.583Z,99.90
2022-09-05T07:56:48.139Z,99.90
2022-09-05T07:57:00.912Z,99.90
2022-09-05T07:58:19.805Z,99.90
2022-09-05T08:00:51.964Z,99.90
2022-09-05T08:03:25.557Z,99.90
2022-09-05T08:05:54.848Z,99.90
2022-09-05T08:08:24.674Z,99.90
2022-09-05T08:11:24.204Z,99.90
2022-09-05T08:13:51.459Z,99.90
2022-09-05T08:16:20.943Z,99.90
2022-09-05T08:18:51.757Z,99.90
2022-09-05T08:21:27.111Z,99.90
2022-09-05T08:23:57.799Z,99.90
2022-09-05T08:26:36.199Z,99.90
2022-09-05T08:29:08.910Z,99.90
2022-09-05T08:31:42.226Z,99.90
2022-09-05T08:34:13.626Z,99.90
2022-09-05T08:36:43.059Z,99.90
2022-09-05T08:39:12.431Z,99.90
2022-09-05T08:41:51.252Z,99.90
2022-09-05T08:46:44.797Z,99.90
2022-09-05T08:47:18.253Z,99.90
2022-09-05T08:49:52.142Z,99.90
2022-09-05T08:52:27.727Z,99.90
2022-09-05T08:55:05.790Z,99.90
2022-09-05T08:57:55.104Z,99.90
2022-09-05T09:00:24.673Z,99.90
2022-09-05T09:03:07.008Z,99.90
2022-09-05T09:05:56.729Z,99.90
2022-09-05T09:08:45.175Z,99.90
2022-09-05T09:11:16.126Z,99.90
2022-09-05T09:13:52.259Z,99.90
2022-09-05T09:16:27.871Z,99.90
2022-09-05T09:19:06.359Z,99.90
2022-09-05T09:21:40.680Z,99.90
2022-09-05T09:24:14.042Z,99.90
2022-09-05T09:26:43.471Z,99.90
2022-09-05T09:29:13.183Z,99.90
2022-09-05T09:31:56.319Z,99.90
2022-09-05T09:34:39.582Z,99.20
2022-09-05T09:37:49.916Z,99.00
2022-09-05T09:40:23.314Z,98.40
2022-09-05T09:42:51.894Z,98.90
2022-09-05T09:45:29.836Z,99.30
2022-09-05T09:48:06.914Z,98.90
2022-09-05T09:50:47.820Z,98.70
2022-09-05T09:53:37.128Z,97.90
2022-09-05T09:56:13.687Z,97.70
2022-09-05T09:58:49.902Z,97.30
2022-09-05T10:01:36.708Z,97.80
2022-09-05T10:10:33.201Z,98.00
2022-09-05T10:10:52.851Z,98.80
2022-09-05T10:10:53.206Z,98.50
2022-09-05T10:13:23.991Z,98.50
2022-09-05T10:16:24.195Z,97.40
2022-09-05T10:19:00.555Z,97.30
2022-09-05T10:21:37.504Z,97.30
2022-09-05T10:24:20.209Z,96.50
2022-09-05T10:27:04.178Z,95.90
2022-09-05T10:29:53.736Z,95.90
2022-09-05T10:35:22.714Z,95.20
2022-09-05T10:35:22.917Z,94.80
2022-09-05T10:37:54.845Z,94.80
2022-09-05T10:40:23.951Z,94.60
2022-09-05T10:43:00.413Z,93.90
2022-09-05T10:45:38.781Z,93.60
2022-09-05T10:48:13.617Z,93.40
2022-09-05T10:50:44.358Z,92.70
2022-09-05T10:53:39.464Z,92.70
2022-09-05T10:56:12.212Z,92.10
2022-09-05T11:01:06.932Z,91.70
2022-09-05T11:02:29.254Z,91.00
2022-09-05T11:04:28.674Z,91.50
2022-09-05T11:07:03.547Z,91.70
2022-09-05T11:09:44.562Z,91.80
2022-09-05T11:12:22.305Z,90.90
2022-09-05T11:14:52.335Z,90.60
2022-09-05T11:17:27.886Z,90.50
2022-09-05T11:20:00.917Z,90.40
2022-09-05T11:22:30.925Z,90.50
2022-09-05T11:25:00.204Z,89.00
2022-09-05T11:27:30.776Z,90.00
2022-09-05T11:30:01.041Z,88.90
2022-09-05T11:39:12.089Z,88.80
2022-09-05T11:39:50.616Z,88.30
2022-09-05T11:40:04.117Z,88.70
2022-09-05T11:41:38.966Z,89.10
2022-09-05T11:44:27.561Z,89.10
2022-09-05T11:47:27.989Z,87.90
2022-09-05T11:50:09.100Z,88.40
2022-09-05T11:52:55.018Z,87.20
2022-09-05T11:55:33.227Z,86.60
2022-09-05T11:58:14.722Z,85.10
2022-09-05T12:01:41.876Z,85.40
2022-09-05T12:04:08.112Z,85.70
2022-09-05T12:07:02.005Z,85.10
2022-09-05T12:09:37.581Z,85.50
2022-09-05T12:12:19.339Z,83.20
2022-09-05T12:15:12.135Z,82.30
2022-09-05T12:17:47.008Z,83.70
2022-09-05T12:20:17.155Z,82.20
2022-09-05T12:22:54.351Z,83.00
2022-09-05T12:27:36.108Z,81.40
2022-09-05T12:29:33.736Z,82.40
2022-09-05T12:32:06.939Z,81.80
2022-09-05T12:36:09.705Z,80.40
2022-09-05T12:40:05.099Z,79.40
2022-09-05T12:40:56.153Z,81.20
2022-09-05T12:42:54.879Z,79.40
2022-09-05T12:45:40.377Z,78.70
2022-09-05T12:48:11.497Z,79.20
2022-09-05T12:50:43.428Z,76.10
2022-09-05T12:53:13.278Z,77.10
2022-09-05T12:55:49.417Z,75.50
2022-09-05T13:02:57.219Z,74.50
2022-09-05T13:03:06.942Z,74.30
2022-09-05T13:04:20.267Z,75.10
2022-09-05T13:06:57.199Z,75.30
2022-09-05T13:09:35.814Z,76.20
2022-09-05T13:14:54.226Z,74.50
2022-09-05T13:15:18.702Z,74.50
2022-09-05T13:17:55.119Z,74.10
2022-09-05T13:20:33.962Z,73.60
2022-09-05T13:23:03.135Z,73.60
2022-09-05T13:25:31.115Z,73.50
2022-09-05T13:28:01.496Z,73.30
2022-09-05T13:34:58.590Z,73.10
2022-09-05T13:38:09.898Z,68.20
2022-09-05T13:38:20.157Z,68.80
2022-09-05T13:39:04.351Z,67.10
2022-09-05T13:41:35.493Z,66.80
2022-09-05T13:44:25.306Z,66.70
2022-09-05T13:46:59.256Z,67.70
2022-09-05T13:49:32.201Z,67.70
2022-09-05T13:52:09.183Z,67.50
2022-09-05T13:54:44.113Z,67.90
2022-09-05T13:57:31.652Z,67.20
2022-09-05T14:00:27.131Z,67.40
2022-09-05T14:06:26.424Z,67.40
2022-09-05T14:11:57.939Z,66.60
2022-09-05T14:20:50.534Z,67.10
2022-09-05T14:23:20.994Z,67.40
2022-09-05T14:25:50.327Z,66.60
2022-09-05T14:28:24.063Z,65.60
2022-09-05T14:30:54.156Z,65.80
2022-09-05T14:37:49.874Z,65.90
2022-09-05T14:37:50.572Z,66.10
2022-09-05T14:39:43.678Z,65.00
2022-09-05T14:42:23.936Z,65.70
2022-09-05T14:45:06.278Z,64.60
2022-09-05T14:48:02.498Z,63.60
2022-09-05T14:50:49.275Z,64.00
2022-09-05T14:57:15.181Z,63.10
2022-09-05T15:02:46.277Z,62.20
2022-09-05T15:02:47.896Z,61.50
2022-09-05T15:04:55.095Z,60.90
2022-09-05T15:07:25.387Z,62.30
2022-09-05T15:12:24.881Z,62.50
2022-09-05T15:13:15.735Z,62.70
2022-09-05T15:16:02.069Z,62.20
2022-09-05T15:18:32.170Z,62.30
2022-09-05T15:21:34.084Z,62.10
2022-09-05T15:24:04.863Z,62.00
2022-09-05T15:26:47.927Z,61.30
2022-09-05T15:29:20.855Z,60.90
2022-09-05T15:31:53.257Z,60.80
2022-09-05T15:34:38.572Z,61.00
2022-09-05T15:37:22.363Z,61.10
2022-09-05T15:40:00.589Z,59.90
2022-09-05T15:42:30.622Z,60.00
2022-09-05T15:45:17.036Z,60.90
2022-09-05T15:47:47.397Z,61.70
2022-09-05T15:50:21.782Z,60.10
2022-09-05T15:52:54.904Z,59.90
2022-09-05T15:55:24.561Z,60.30
2022-09-05T15:57:54.994Z,60.20
2022-09-05T16:00:39.398Z,61.40
2022-09-05T16:05:24.632Z,61.40
2022-09-05T16:10:39.231Z,61.80
2022-09-05T16:10:50.857Z,62.20
2022-09-05T16:12:09.075Z,63.20
2022-09-05T16:14:28.770Z,62.30
2022-09-05T16:23:11.794Z,62.70
2022-09-05T16:23:17.445Z,62.50
2022-09-05T16:23:25.292Z,63.10
2022-09-05T16:25:30.487Z,63.40
2022-09-05T16:28:00.565Z,63.80
2022-09-05T16:30:31.031Z,64.30
2022-09-05T16:33:03.195Z,64.30
2022-09-05T16:35:33.478Z,64.40
2022-09-05T16:38:07.096Z,65.10
2022-09-05T16:40:36.487Z,65.30
2022-09-05T16:43:07.615Z,65.60
2022-09-05T16:45:40.069Z,66.40
2022-09-05T16:48:14.131Z,66.70
2022-09-05T16:50:50.441Z,66.50
2022-09-05T16:53:28.261Z,67.30
2022-09-05T16:56:00.458Z,67.50
2022-09-05T16:58:31.260Z,68.30
2022-09-05T17:01:12.052Z,68.80
2022-09-05T17:03:46.315Z,69.00
2022-09-05T17:06:26.406Z,69.20
2022-09-05T17:09:12.138Z,69.30
2022-09-05T17:11:44.391Z,69.50
2022-09-05T17:14:33.306Z,69.90
2022-09-05T17:17:21.394Z,70.40
2022-09-05T17:20:05.687Z,70.90
2022-09-05T17:24:49.293Z,71.70
2022-09-05T17:29:23.461Z,72.10
2022-09-05T17:29:27.413Z,72.40
2022-09-05T17:34:46.797Z,73.70
2022-09-05T17:37:32.134Z,74.30
2022-09-05T17:40:05.219Z,75.10
2022-09-05T17:42:38.917Z,75.50
2022-09-05T17:45:10.581Z,75.80
2022-09-05T17:47:46.140Z,76.50
2022-09-05T17:50:16.022Z,77.20
2022-09-05T17:53:26.041Z,77.60
2022-09-05T17:56:12.220Z,77.30
2022-09-05T17:58:49.217Z,78.50
2022-09-05T18:01:19.460Z,78.70
2022-09-05T18:04:17.321Z,79.50
2022-09-05T18:06:54.072Z,79.90
2022-09-05T18:09:55.698Z,79.90
2022-09-05T18:13:13.486Z,80.40
2022-09-05T18:15:44.048Z,81.20
2022-09-05T18:18:35.428Z,81.20
2022-09-05T18:21:22.453Z,81.70
2022-09-05T18:26:41.827Z,83.00
2022-09-05T18:29:15.864Z,83.00
2022-09-05T18:32:03.140Z,83.80
2022-09-05T18:34:55.218Z,84.10
2022-09-05T18:37:42.660Z,83.40
2022-09-05T18:40:36.424Z,84.70
2022-09-05T18:43:10.449Z,85.70
2022-09-05T18:45:52.143Z,85.20
2022-09-05T18:48:28.294Z,84.90
2022-09-05T18:51:13.006Z,84.90
2022-09-05T18:53:47.271Z,83.90
2022-09-05T18:56:26.766Z,84.20
2022-09-05T18:59:09.527Z,85.00
2022-09-05T19:01:40.982Z,86.60
2022-09-05T19:04:33.125Z,87.00
2022-09-05T19:07:07.725Z,87.00
2022-09-05T19:09:37.282Z,87.90
2022-09-05T19:12:31.645Z,88.40
2022-09-05T19:14:54.853Z,88.90
2022-09-05T19:17:27.437Z,89.70
2022-09-05T19:20:32.153Z,90.00
2022-09-05T19:23:11.244Z,89.40
2022-09-05T19:25:40.973Z,89.80
2022-09-05T19:36:46.370Z,90.10
2022-09-05T19:37:03.967Z,90.50
2022-09-05T19:37:05.923Z,90.30
2022-09-05T19:37:07.577Z,90.50
2022-09-05T19:46:15.441Z,90.40
2022-09-05T19:47:39.628Z,90.70
2022-09-05T19:47:44.912Z,91.00
2022-09-05T19:48:07.667Z,91.20
2022-09-05T19:50:37.306Z,91.70
2022-09-05T19:53:07.233Z,91.80
2022-09-05T19:55:36.475Z,92.10
2022-09-05T19:58:19.090Z,92.10
2022-09-05T20:01:01.120Z,92.00
2022-09-05T20:03:35.483Z,92.40
2022-09-05T20:06:28.718Z,92.60
2022-09-05T20:09:07.713Z,92.80
2022-09-05T20:11:45.166Z,93.00
2022-09-05T20:14:18.455Z,94.50
2022-09-05T20:16:50.092Z,94.40
2022-09-05T20:19:33.016Z,94.10
2022-09-05T20:22:12.832Z,94.80
2022-09-05T20:24:51.296Z,95.90
2022-09-05T20:27:19.158Z,95.80
2022-09-05T20:29:56.767Z,95.30
2022-09-05T20:32:39.413Z,95.90
2022-09-05T20:40:44.698Z,95.70
2022-09-05T20:43:26.645Z,96.10
2022-09-05T20:43:35.846Z,95.90
2022-09-05T20:43:57.831Z,96.00
2022-09-05T20:50:26.123Z,95.60
2022-09-05T20:54:05.690Z,95.60
2022-09-05T20:54:20.741Z,95.80
2022-09-05T20:54:58.692Z,95.90
2022-09-05T20:57:46.411Z,96.00
2022-09-05T21:00:15.631Z,96.20
2022-09-05T21:02:50.553Z,96.00
2022-09-05T21:05:24.667Z,96.30
2022-09-05T21:08:07.076Z,96.40
2022-09-05T21:10:54.757Z,96.50
2022-09-05T21:13:24.963Z,96.40
2022-09-05T21:15:54.252Z,95.80
2022-09-05T21:18:23.343Z,96.30
2022-09-05T21:20:58.220Z,96.10
2022-09-05T21:23:29.501Z,96.90
2022-09-05T21:25:59.243Z,96.20
2022-09-05T21:28:36.579Z,95.90
2022-09-05T21:31:15.839Z,97.00
2022-09-05T21:33:45.887Z,97.00
2022-09-05T21:36:15.589Z,96.40
2022-09-05T21:38:44.024Z,95.20
2022-09-05T21:41:16.648Z,95.70
2022-09-05T21:47:37.713Z,96.10
2022-09-05T21:47:39.993Z,96.00
2022-09-05T21:49:22.527Z,96.20
2022-09-05T21:51:51.712Z,97.80
2022-09-05T21:59:17.232Z,96.90
2022-09-05T21:59:25.237Z,96.60
2022-09-05T22:00:07.110Z,96.30
2022-09-05T22:02:38.853Z,96.90
2022-09-05T22:05:07.165Z,97.00
2022-09-05T22:07:35.747Z,98.20
2022-09-05T22:10:04.876Z,96.00
2022-09-05T22:12:38.452Z,96.00
2022-09-05T22:15:26.494Z,96.20
2022-09-05T22:18:06.309Z,95.20
2022-09-05T22:20:44.410Z,96.90
2022-09-05T22:23:12.534Z,95.00
2022-09-05T22:25:40.302Z,96.30
2022-09-05T22:28:12.675Z,95.70
2022-09-05T22:30:40.623Z,97.70
2022-09-05T22:33:08.752Z,95.80
2022-09-05T22:35:38.977Z,95.70
2022-09-05T22:38:11.862Z,98.00
2022-09-05T22:40:42.180Z,96.70
2022-09-05T22:43:11.522Z,96.80
2022-09-05T22:45:41.335Z,97.70
2022-09-05T22:48:10.131Z,97.30
2022-09-05T22:50:37.857Z,96.40
2022-09-05T22:53:06.970Z,96.60
2022-09-05T22:55:34.911Z,96.40
2022-09-05T22:58:02.857Z,96.50
2022-09-05T23:00:32.061Z,97.10
2022-09-05T23:03:00.349Z,96.70
2022-09-05T23:05:28.989Z,96.10
2022-09-05T23:07:57.559Z,96.60
2022-09-05T23:10:25.518Z,96.60
2022-09-05T23:12:53.542Z,96.70
2022-09-05T23:15:21.257Z,96.90
2022-09-05T23:17:55.413Z,97.10
2022-09-05T23:20:23.290Z,97.20
2022-09-05T23:22:51.001Z,97.50
2022-09-05T23:25:19.072Z,97.50
2022-09-05T23:27:46.927Z,97.60
2022-09-05T23:30:14.710Z,97.70
2022-09-05T23:32:44.613Z,98.10
2022-09-05T23:35:14.280Z,97.80
2022-09-05T23:37:43.079Z,97.90
2022-09-05T23:40:11.429Z,98.10
2022-09-05T23:42:39.495Z,98.20
2022-09-05T23:45:07.743Z,98.60
2022-09-05T23:47:36.052Z,98.30
2022-09-05T23:50:03.807Z,98.50
2022-09-05T23:52:38.357Z,98.60
2022-09-05T23:55:06.510Z,98.80
2022-09-05T23:57:34.247Z,98.80
